sensor_id;sensor_type;location;lat;lon;timestamp;P1;durP1;ratioP1;P2;durP2;ratioP2
28802;SDS011;15949;55.656;37.422;2023-07-02T00:01:00;10.48;;;8.65;;
28802;SDS011;15949;55.656;37.422;2023-07-02T00:06:06;11.68;;;8.93;;
28802;SDS011;15949;55.656;37.422;2023-07-02T00:11:13;11.32;;;8.73;;
28802;SDS011;15949;55.656;37.422;2023-07-02T00:16:20;12.82;;;8.77;;
28802;SDS011;15949;55.656;37.422;2023-07-02T00:21:26;13.55;;;9.00;;
28802;SDS011;15949;55.656;37.422;2023-07-02T00:26:33;15.30;;;8.30;;
28802;SDS011;15949;55.656;37.422;2023-07-02T00:31:39;10.63;;;8.45;;
28802;SDS011;15949;55.656;37.422;2023-07-02T00:36:44;16.00;;;9.27;;
28802;SDS011;15949;55.656;37.422;2023-07-02T00:41:50;12.23;;;9.02;;
28802;SDS011;15949;55.656;37.422;2023-07-02T00:46:55;12.80;;;9.20;;
28802;SDS011;15949;55.656;37.422;2023-07-02T00:52:01;12.13;;;9.68;;
28802;SDS011;15949;55.656;37.422;2023-07-02T00:57:07;9.77;;;8.65;;
28802;SDS011;15949;55.656;37.422;2023-07-02T01:02:13;10.68;;;8.93;;
28802;SDS011;15949;55.656;37.422;2023-07-02T01:07:19;11.93;;;9.48;;
28802;SDS011;15949;55.656;37.422;2023-07-02T01:12:24;11.02;;;8.90;;
28802;SDS011;15949;55.656;37.422;2023-07-02T01:17:31;12.95;;;9.13;;
28802;SDS011;15949;55.656;37.422;2023-07-02T01:22:45;11.50;;;9.35;;
28802;SDS011;15949;55.656;37.422;2023-07-02T01:27:53;10.30;;;8.83;;
28802;SDS011;15949;55.656;37.422;2023-07-02T01:33:00;12.25;;;8.88;;
28802;SDS011;15949;55.656;37.422;2023-07-02T01:38:06;11.90;;;9.02;;
28802;SDS011;15949;55.656;37.422;2023-07-02T01:43:12;13.98;;;9.50;;
28802;SDS011;15949;55.656;37.422;2023-07-02T01:48:17;13.20;;;9.43;;
28802;SDS011;15949;55.656;37.422;2023-07-02T01:53:23;12.30;;;9.00;;
28802;SDS011;15949;55.656;37.422;2023-07-02T01:58:29;10.52;;;9.05;;
28802;SDS011;15949;55.656;37.422;2023-07-02T02:03:34;10.88;;;8.52;;
28802;SDS011;15949;55.656;37.422;2023-07-02T02:08:40;9.10;;;8.20;;
28802;SDS011;15949;55.656;37.422;2023-07-02T02:13:46;10.20;;;8.18;;
28802;SDS011;15949;55.656;37.422;2023-07-02T02:18:51;12.43;;;9.23;;
28802;SDS011;15949;55.656;37.422;2023-07-02T02:23:58;11.70;;;8.88;;
28802;SDS011;15949;55.656;37.422;2023-07-02T02:29:03;13.32;;;8.98;;
28802;SDS011;15949;55.656;37.422;2023-07-02T02:34:09;12.52;;;8.02;;
28802;SDS011;15949;55.656;37.422;2023-07-02T02:39:15;11.30;;;8.50;;
28802;SDS011;15949;55.656;37.422;2023-07-02T02:44:20;11.95;;;8.30;;
28802;SDS011;15949;55.656;37.422;2023-07-02T02:49:26;10.88;;;8.23;;
28802;SDS011;15949;55.656;37.422;2023-07-02T02:54:32;10.30;;;8.60;;
28802;SDS011;15949;55.656;37.422;2023-07-02T02:59:37;12.32;;;8.38;;
28802;SDS011;15949;55.656;37.422;2023-07-02T03:04:43;10.05;;;7.53;;
28802;SDS011;15949;55.656;37.422;2023-07-02T03:09:50;9.50;;;7.53;;
28802;SDS011;15949;55.656;37.422;2023-07-02T03:14:56;8.30;;;7.20;;
28802;SDS011;15949;55.656;37.422;2023-07-02T03:20:02;8.18;;;7.38;;
28802;SDS011;15949;55.656;37.422;2023-07-02T03:25:13;9.80;;;7.35;;
28802;SDS011;15949;55.656;37.422;2023-07-02T03:30:20;9.50;;;7.00;;
28802;SDS011;15949;55.656;37.422;2023-07-02T03:35:25;8.90;;;6.95;;
28802;SDS011;15949;55.656;37.422;2023-07-02T03:40:31;11.52;;;6.70;;
28802;SDS011;15949;55.656;37.422;2023-07-02T03:45:37;7.43;;;6.13;;
28802;SDS011;15949;55.656;37.422;2023-07-02T03:50:42;7.60;;;6.35;;
28802;SDS011;15949;55.656;37.422;2023-07-02T03:55:48;7.78;;;6.47;;
28802;SDS011;15949;55.656;37.422;2023-07-02T04:00:54;8.27;;;5.90;;
28802;SDS011;15949;55.656;37.422;2023-07-02T04:05:59;11.82;;;6.13;;
28802;SDS011;15949;55.656;37.422;2023-07-02T04:11:05;9.75;;;6.07;;
28802;SDS011;15949;55.656;37.422;2023-07-02T04:16:11;8.75;;;5.75;;
28802;SDS011;15949;55.656;37.422;2023-07-02T04:21:17;7.20;;;5.75;;
28802;SDS011;15949;55.656;37.422;2023-07-02T04:26:22;10.75;;;5.68;;
28802;SDS011;15949;55.656;37.422;2023-07-02T04:36:37;8.60;;;6.18;;
28802;SDS011;15949;55.656;37.422;2023-07-02T04:41:43;9.43;;;5.80;;
28802;SDS011;15949;55.656;37.422;2023-07-02T04:46:49;7.70;;;5.82;;
28802;SDS011;15949;55.656;37.422;2023-07-02T04:51:55;12.57;;;5.95;;
28802;SDS011;15949;55.656;37.422;2023-07-02T04:57:00;9.70;;;5.78;;
28802;SDS011;15949;55.656;37.422;2023-07-02T05:02:06;7.32;;;5.50;;
28802;SDS011;15949;55.656;37.422;2023-07-02T05:07:12;8.95;;;5.82;;
28802;SDS011;15949;55.656;37.422;2023-07-02T05:12:18;8.35;;;5.55;;
28802;SDS011;15949;55.656;37.422;2023-07-02T05:17:24;8.88;;;5.60;;
28802;SDS011;15949;55.656;37.422;2023-07-02T05:22:30;8.70;;;5.57;;
28802;SDS011;15949;55.656;37.422;2023-07-02T05:27:36;7.85;;;5.38;;
28802;SDS011;15949;55.656;37.422;2023-07-02T05:32:42;11.52;;;5.80;;
28802;SDS011;15949;55.656;37.422;2023-07-02T05:37:47;8.23;;;5.63;;
28802;SDS011;15949;55.656;37.422;2023-07-02T05:42:53;9.95;;;5.53;;
28802;SDS011;15949;55.656;37.422;2023-07-02T05:47:59;10.63;;;5.15;;
28802;SDS011;15949;55.656;37.422;2023-07-02T05:53:05;8.88;;;5.43;;
28802;SDS011;15949;55.656;37.422;2023-07-02T05:58:11;9.05;;;5.60;;
28802;SDS011;15949;55.656;37.422;2023-07-02T06:03:17;8.05;;;5.20;;
28802;SDS011;15949;55.656;37.422;2023-07-02T06:08:26;8.40;;;5.32;;
28802;SDS011;15949;55.656;37.422;2023-07-02T06:13:32;7.95;;;5.20;;
28802;SDS011;15949;55.656;37.422;2023-07-02T06:18:38;7.32;;;5.20;;
28802;SDS011;15949;55.656;37.422;2023-07-02T06:23:44;7.63;;;5.13;;
28802;SDS011;15949;55.656;37.422;2023-07-02T06:28:50;7.95;;;5.00;;
28802;SDS011;15949;55.656;37.422;2023-07-02T06:33:55;7.72;;;4.70;;
28802;SDS011;15949;55.656;37.422;2023-07-02T06:39:01;10.07;;;4.40;;
28802;SDS011;15949;55.656;37.422;2023-07-02T06:44:07;9.10;;;4.60;;
28802;SDS011;15949;55.656;37.422;2023-07-02T06:49:13;10.40;;;4.70;;
28802;SDS011;15949;55.656;37.422;2023-07-02T06:54:19;7.13;;;4.82;;
28802;SDS011;15949;55.656;37.422;2023-07-02T06:59:25;11.05;;;4.53;;
28802;SDS011;15949;55.656;37.422;2023-07-02T07:04:30;5.65;;;4.18;;
28802;SDS011;15949;55.656;37.422;2023-07-02T07:09:36;9.63;;;4.82;;
28802;SDS011;15949;55.656;37.422;2023-07-02T07:14:41;7.10;;;4.68;;
28802;SDS011;15949;55.656;37.422;2023-07-02T07:19:48;7.35;;;4.20;;
28802;SDS011;15949;55.656;37.422;2023-07-02T07:24:54;9.32;;;4.53;;
28802;SDS011;15949;55.656;37.422;2023-07-02T07:29:59;8.95;;;4.40;;
28802;SDS011;15949;55.656;37.422;2023-07-02T07:35:05;8.07;;;4.47;;
28802;SDS011;15949;55.656;37.422;2023-07-02T07:40:11;7.20;;;4.60;;
28802;SDS011;15949;55.656;37.422;2023-07-02T07:45:17;8.38;;;4.30;;
28802;SDS011;15949;55.656;37.422;2023-07-02T07:50:23;5.43;;;4.40;;
28802;SDS011;15949;55.656;37.422;2023-07-02T07:55:28;6.07;;;4.00;;
28802;SDS011;15949;55.656;37.422;2023-07-02T08:00:34;7.57;;;4.32;;
28802;SDS011;15949;55.656;37.422;2023-07-02T08:05:39;7.32;;;4.03;;
28802;SDS011;15949;55.656;37.422;2023-07-02T08:10:45;7.40;;;3.88;;
28802;SDS011;15949;55.656;37.422;2023-07-02T08:15:51;7.47;;;3.97;;
28802;SDS011;15949;55.656;37.422;2023-07-02T08:20:57;6.53;;;3.75;;
28802;SDS011;15949;55.656;37.422;2023-07-02T08:26:02;9.07;;;4.15;;
28802;SDS011;15949;55.656;37.422;2023-07-02T08:31:08;10.75;;;4.10;;
28802;SDS011;15949;55.656;37.422;2023-07-02T08:36:14;7.65;;;3.97;;
28802;SDS011;15949;55.656;37.422;2023-07-02T08:41:22;6.68;;;3.70;;
28802;SDS011;15949;55.656;37.422;2023-07-02T08:46:28;8.93;;;4.10;;
28802;SDS011;15949;55.656;37.422;2023-07-02T08:51:34;7.40;;;4.10;;
28802;SDS011;15949;55.656;37.422;2023-07-02T08:56:40;10.18;;;4.05;;
28802;SDS011;15949;55.656;37.422;2023-07-02T09:01:47;10.02;;;4.00;;
28802;SDS011;15949;55.656;37.422;2023-07-02T09:07:04;9.70;;;4.10;;
28802;SDS011;15949;55.656;37.422;2023-07-02T09:12:21;7.20;;;4.00;;
28802;SDS011;15949;55.656;37.422;2023-07-02T09:17:31;7.25;;;4.22;;
28802;SDS011;15949;55.656;37.422;2023-07-02T09:22:40;9.93;;;4.43;;
28802;SDS011;15949;55.656;37.422;2023-07-02T09:27:46;7.72;;;4.03;;
28802;SDS011;15949;55.656;37.422;2023-07-02T09:32:52;10.18;;;3.67;;
28802;SDS011;15949;55.656;37.422;2023-07-02T09:37:59;8.82;;;4.00;;
28802;SDS011;15949;55.656;37.422;2023-07-02T09:43:05;6.05;;;3.55;;
28802;SDS011;15949;55.656;37.422;2023-07-02T09:48:13;10.88;;;3.45;;
28802;SDS011;15949;55.656;37.422;2023-07-02T09:53:23;10.00;;;3.85;;
28802;SDS011;15949;55.656;37.422;2023-07-02T09:58:28;6.60;;;3.72;;
28802;SDS011;15949;55.656;37.422;2023-07-02T10:03:36;10.60;;;4.35;;
28802;SDS011;15949;55.656;37.422;2023-07-02T10:08:52;7.32;;;4.28;;
28802;SDS011;15949;55.656;37.422;2023-07-02T10:19:13;12.63;;;8.35;;
28802;SDS011;15949;55.656;37.422;2023-07-02T10:24:18;5.97;;;3.75;;
28802;SDS011;15949;55.656;37.422;2023-07-02T10:29:24;12.13;;;3.63;;
28802;SDS011;15949;55.656;37.422;2023-07-02T10:34:34;5.57;;;3.78;;
28802;SDS011;15949;55.656;37.422;2023-07-02T10:39:40;6.28;;;3.90;;
28802;SDS011;15949;55.656;37.422;2023-07-02T10:44:47;9.07;;;3.90;;
28802;SDS011;15949;55.656;37.422;2023-07-02T10:49:56;7.88;;;3.80;;
28802;SDS011;15949;55.656;37.422;2023-07-02T10:55:02;8.18;;;3.45;;
28802;SDS011;15949;55.656;37.422;2023-07-02T11:00:09;6.72;;;3.20;;
28802;SDS011;15949;55.656;37.422;2023-07-02T11:05:15;7.78;;;3.55;;
28802;SDS011;15949;55.656;37.422;2023-07-02T11:10:21;6.30;;;3.30;;
28802;SDS011;15949;55.656;37.422;2023-07-02T11:15:34;5.28;;;3.25;;
28802;SDS011;15949;55.656;37.422;2023-07-02T11:20:42;8.98;;;3.08;;
28802;SDS011;15949;55.656;37.422;2023-07-02T11:31:02;6.78;;;3.20;;
28802;SDS011;15949;55.656;37.422;2023-07-02T11:36:19;7.22;;;2.90;;
28802;SDS011;15949;55.656;37.422;2023-07-02T11:41:41;11.57;;;3.83;;
28802;SDS011;15949;55.656;37.422;2023-07-02T11:46:48;13.05;;;3.20;;
28802;SDS011;15949;55.656;37.422;2023-07-02T11:51:54;5.68;;;3.47;;
28802;SDS011;15949;55.656;37.422;2023-07-02T11:56:59;7.10;;;3.40;;
28802;SDS011;15949;55.656;37.422;2023-07-02T12:02:05;6.80;;;3.67;;
28802;SDS011;15949;55.656;37.422;2023-07-02T12:07:10;5.50;;;3.42;;
28802;SDS011;15949;55.656;37.422;2023-07-02T12:12:18;5.60;;;3.60;;
28802;SDS011;15949;55.656;37.422;2023-07-02T12:17:24;7.03;;;3.55;;
28802;SDS011;15949;55.656;37.422;2023-07-02T12:22:30;11.80;;;3.83;;
28802;SDS011;15949;55.656;37.422;2023-07-02T12:27:35;7.45;;;4.25;;
28802;SDS011;15949;55.656;37.422;2023-07-02T12:32:41;8.77;;;3.97;;
28802;SDS011;15949;55.656;37.422;2023-07-02T12:37:48;9.00;;;4.07;;
28802;SDS011;15949;55.656;37.422;2023-07-02T12:42:55;5.43;;;4.00;;
28802;SDS011;15949;55.656;37.422;2023-07-02T12:48:01;7.18;;;3.90;;
28802;SDS011;15949;55.656;37.422;2023-07-02T12:53:07;10.23;;;4.50;;
28802;SDS011;15949;55.656;37.422;2023-07-02T12:58:13;8.43;;;4.38;;
28802;SDS011;15949;55.656;37.422;2023-07-02T13:03:18;8.07;;;4.53;;
28802;SDS011;15949;55.656;37.422;2023-07-02T13:08:24;7.57;;;4.50;;
28802;SDS011;15949;55.656;37.422;2023-07-02T13:13:29;9.40;;;4.85;;
28802;SDS011;15949;55.656;37.422;2023-07-02T13:18:35;9.10;;;4.88;;
28802;SDS011;15949;55.656;37.422;2023-07-02T13:23:41;9.02;;;5.00;;
28802;SDS011;15949;55.656;37.422;2023-07-02T13:28:46;12.45;;;6.25;;
28802;SDS011;15949;55.656;37.422;2023-07-02T13:33:53;9.27;;;5.22;;
28802;SDS011;15949;55.656;37.422;2023-07-02T13:38:59;9.68;;;5.43;;
28802;SDS011;15949;55.656;37.422;2023-07-02T13:44:04;14.38;;;5.78;;
28802;SDS011;15949;55.656;37.422;2023-07-02T13:49:10;10.50;;;5.28;;
28802;SDS011;15949;55.656;37.422;2023-07-02T13:54:16;11.10;;;4.82;;
28802;SDS011;15949;55.656;37.422;2023-07-02T13:59:23;10.47;;;4.83;;
28802;SDS011;15949;55.656;37.422;2023-07-02T14:04:29;9.32;;;4.30;;
28802;SDS011;15949;55.656;37.422;2023-07-02T14:09:34;8.13;;;4.38;;
28802;SDS011;15949;55.656;37.422;2023-07-02T14:14:41;5.45;;;4.57;;
28802;SDS011;15949;55.656;37.422;2023-07-02T14:19:46;9.68;;;4.50;;
28802;SDS011;15949;55.656;37.422;2023-07-02T14:24:52;9.20;;;4.97;;
28802;SDS011;15949;55.656;37.422;2023-07-02T14:29:57;9.05;;;5.28;;
28802;SDS011;15949;55.656;37.422;2023-07-02T14:35:06;9.05;;;5.38;;
28802;SDS011;15949;55.656;37.422;2023-07-02T14:40:12;7.30;;;4.68;;
28802;SDS011;15949;55.656;37.422;2023-07-02T14:45:17;9.00;;;4.68;;
28802;SDS011;15949;55.656;37.422;2023-07-02T14:50:23;7.28;;;5.07;;
28802;SDS011;15949;55.656;37.422;2023-07-02T14:55:29;8.05;;;5.00;;
28802;SDS011;15949;55.656;37.422;2023-07-02T15:00:34;11.52;;;4.93;;
28802;SDS011;15949;55.656;37.422;2023-07-02T15:05:40;9.15;;;5.15;;
28802;SDS011;15949;55.656;37.422;2023-07-02T15:10:48;8.68;;;4.82;;
28802;SDS011;15949;55.656;37.422;2023-07-02T15:15:55;11.82;;;5.43;;
28802;SDS011;15949;55.656;37.422;2023-07-02T15:21:01;9.95;;;5.32;;
28802;SDS011;15949;55.656;37.422;2023-07-02T15:26:07;10.00;;;5.35;;
28802;SDS011;15949;55.656;37.422;2023-07-02T15:31:13;9.68;;;4.95;;
28802;SDS011;15949;55.656;37.422;2023-07-02T15:36:20;8.10;;;5.05;;
28802;SDS011;15949;55.656;37.422;2023-07-02T15:41:26;9.15;;;5.00;;
28802;SDS011;15949;55.656;37.422;2023-07-02T15:46:32;6.40;;;5.13;;
28802;SDS011;15949;55.656;37.422;2023-07-02T15:51:39;9.03;;;5.20;;
28802;SDS011;15949;55.656;37.422;2023-07-02T15:56:45;7.45;;;4.85;;
28802;SDS011;15949;55.656;37.422;2023-07-02T16:01:51;9.93;;;5.35;;
28802;SDS011;15949;55.656;37.422;2023-07-02T16:06:57;10.25;;;5.78;;
28802;SDS011;15949;55.656;37.422;2023-07-02T16:12:02;7.90;;;5.25;;
28802;SDS011;15949;55.656;37.422;2023-07-02T16:17:08;14.32;;;5.60;;
28802;SDS011;15949;55.656;37.422;2023-07-02T16:22:14;10.27;;;5.50;;
28802;SDS011;15949;55.656;37.422;2023-07-02T16:27:20;10.70;;;5.78;;
28802;SDS011;15949;55.656;37.422;2023-07-02T16:32:26;12.40;;;5.78;;
28802;SDS011;15949;55.656;37.422;2023-07-02T16:37:33;14.65;;;5.55;;
28802;SDS011;15949;55.656;37.422;2023-07-02T16:42:39;9.73;;;5.68;;
28802;SDS011;15949;55.656;37.422;2023-07-02T16:47:45;10.65;;;6.03;;
28802;SDS011;15949;55.656;37.422;2023-07-02T16:52:51;9.15;;;6.20;;
28802;SDS011;15949;55.656;37.422;2023-07-02T16:57:56;10.40;;;6.90;;
28802;SDS011;15949;55.656;37.422;2023-07-02T17:03:02;9.77;;;5.93;;
28802;SDS011;15949;55.656;37.422;2023-07-02T17:08:08;11.35;;;6.07;;
28802;SDS011;15949;55.656;37.422;2023-07-02T17:13:13;10.00;;;6.68;;
28802;SDS011;15949;55.656;37.422;2023-07-02T17:18:19;9.95;;;6.70;;
28802;SDS011;15949;55.656;37.422;2023-07-02T17:23:25;10.15;;;5.80;;
28802;SDS011;15949;55.656;37.422;2023-07-02T17:28:30;7.63;;;5.72;;
28802;SDS011;15949;55.656;37.422;2023-07-02T17:33:36;11.40;;;6.13;;
28802;SDS011;15949;55.656;37.422;2023-07-02T17:38:41;8.32;;;6.00;;
28802;SDS011;15949;55.656;37.422;2023-07-02T17:43:47;8.50;;;5.97;;
28802;SDS011;15949;55.656;37.422;2023-07-02T17:48:52;10.00;;;6.03;;
28802;SDS011;15949;55.656;37.422;2023-07-02T17:53:58;10.50;;;6.60;;
28802;SDS011;15949;55.656;37.422;2023-07-02T17:59:03;10.80;;;6.10;;
28802;SDS011;15949;55.656;37.422;2023-07-02T18:04:11;10.00;;;5.45;;
28802;SDS011;15949;55.656;37.422;2023-07-02T18:09:17;9.80;;;6.32;;
28802;SDS011;15949;55.656;37.422;2023-07-02T18:14:23;13.80;;;6.35;;
28802;SDS011;15949;55.656;37.422;2023-07-02T18:19:31;9.23;;;6.55;;
28802;SDS011;15949;55.656;37.422;2023-07-02T18:24:38;13.93;;;6.93;;
28802;SDS011;15949;55.656;37.422;2023-07-02T18:29:47;18.45;;;7.82;;
28802;SDS011;15949;55.656;37.422;2023-07-02T18:34:52;14.50;;;8.18;;
28802;SDS011;15949;55.656;37.422;2023-07-02T18:39:59;14.95;;;8.43;;
28802;SDS011;15949;55.656;37.422;2023-07-02T18:45:05;14.68;;;8.85;;
28802;SDS011;15949;55.656;37.422;2023-07-02T18:50:11;19.63;;;10.35;;
28802;SDS011;15949;55.656;37.422;2023-07-02T18:55:20;20.87;;;11.53;;
28802;SDS011;15949;55.656;37.422;2023-07-02T19:00:25;21.30;;;13.93;;
28802;SDS011;15949;55.656;37.422;2023-07-02T19:05:31;22.92;;;16.23;;
28802;SDS011;15949;55.656;37.422;2023-07-02T19:10:37;22.88;;;15.40;;
28802;SDS011;15949;55.656;37.422;2023-07-02T19:15:42;19.83;;;13.65;;
28802;SDS011;15949;55.656;37.422;2023-07-02T19:20:48;19.08;;;13.25;;
28802;SDS011;15949;55.656;37.422;2023-07-02T19:25:54;17.70;;;11.32;;
28802;SDS011;15949;55.656;37.422;2023-07-02T19:31:00;16.98;;;11.10;;
28802;SDS011;15949;55.656;37.422;2023-07-02T19:36:09;15.45;;;10.52;;
28802;SDS011;15949;55.656;37.422;2023-07-02T19:41:14;21.77;;;11.43;;
28802;SDS011;15949;55.656;37.422;2023-07-02T19:46:20;21.88;;;10.95;;
28802;SDS011;15949;55.656;37.422;2023-07-02T19:51:25;19.98;;;9.68;;
28802;SDS011;15949;55.656;37.422;2023-07-02T19:56:31;15.90;;;9.40;;
28802;SDS011;15949;55.656;37.422;2023-07-02T20:01:38;17.63;;;10.00;;
28802;SDS011;15949;55.656;37.422;2023-07-02T20:06:43;16.15;;;9.82;;
28802;SDS011;15949;55.656;37.422;2023-07-02T20:11:49;20.38;;;10.45;;
28802;SDS011;15949;55.656;37.422;2023-07-02T20:16:55;20.00;;;10.88;;
28802;SDS011;15949;55.656;37.422;2023-07-02T20:22:01;17.30;;;11.70;;
28802;SDS011;15949;55.656;37.422;2023-07-02T20:27:07;19.38;;;10.98;;
28802;SDS011;15949;55.656;37.422;2023-07-02T20:32:13;25.73;;;12.43;;
28802;SDS011;15949;55.656;37.422;2023-07-02T20:37:18;23.13;;;12.73;;
28802;SDS011;15949;55.656;37.422;2023-07-02T20:42:26;26.40;;;12.60;;
28802;SDS011;15949;55.656;37.422;2023-07-02T20:47:34;20.02;;;11.85;;
28802;SDS011;15949;55.656;37.422;2023-07-02T20:52:45;23.55;;;10.75;;
28802;SDS011;15949;55.656;37.422;2023-07-02T20:57:51;20.08;;;10.65;;
28802;SDS011;15949;55.656;37.422;2023-07-02T21:02:57;22.95;;;10.32;;
28802;SDS011;15949;55.656;37.422;2023-07-02T21:08:02;18.17;;;9.73;;
28802;SDS011;15949;55.656;37.422;2023-07-02T21:13:08;16.45;;;9.43;;
28802;SDS011;15949;55.656;37.422;2023-07-02T21:18:15;19.30;;;8.75;;
28802;SDS011;15949;55.656;37.422;2023-07-02T21:23:20;20.60;;;9.43;;
28802;SDS011;15949;55.656;37.422;2023-07-02T21:28:27;18.38;;;8.93;;
28802;SDS011;15949;55.656;37.422;2023-07-02T21:33:32;14.55;;;9.05;;
28802;SDS011;15949;55.656;37.422;2023-07-02T21:38:38;19.58;;;10.05;;
28802;SDS011;15949;55.656;37.422;2023-07-02T21:43:44;16.05;;;10.35;;
28802;SDS011;15949;55.656;37.422;2023-07-02T21:48:50;23.75;;;10.18;;
28802;SDS011;15949;55.656;37.422;2023-07-02T21:53:55;29.42;;;11.10;;
28802;SDS011;15949;55.656;37.422;2023-07-02T21:59:01;22.38;;;11.07;;
28802;SDS011;15949;55.656;37.422;2023-07-02T22:04:07;21.75;;;10.70;;
28802;SDS011;15949;55.656;37.422;2023-07-02T22:09:13;20.38;;;10.38;;
28802;SDS011;15949;55.656;37.422;2023-07-02T22:14:18;20.30;;;10.05;;
28802;SDS011;15949;55.656;37.422;2023-07-02T22:19:24;18.75;;;9.88;;
28802;SDS011;15949;55.656;37.422;2023-07-02T22:24:35;15.18;;;9.15;;
28802;SDS011;15949;55.656;37.422;2023-07-02T22:29:41;15.13;;;8.50;;
28802;SDS011;15949;55.656;37.422;2023-07-02T22:34:48;21.17;;;8.60;;
28802;SDS011;15949;55.656;37.422;2023-07-02T22:39:53;17.30;;;8.02;;
28802;SDS011;15949;55.656;37.422;2023-07-02T22:44:59;13.85;;;8.20;;
28802;SDS011;15949;55.656;37.422;2023-07-02T22:50:05;13.10;;;8.35;;
28802;SDS011;15949;55.656;37.422;2023-07-02T22:55:12;12.27;;;8.43;;
28802;SDS011;15949;55.656;37.422;2023-07-02T23:00:19;16.67;;;8.55;;
28802;SDS011;15949;55.656;37.422;2023-07-02T23:05:24;13.85;;;8.52;;
28802;SDS011;15949;55.656;37.422;2023-07-02T23:10:30;14.57;;;8.98;;
28802;SDS011;15949;55.656;37.422;2023-07-02T23:15:36;13.60;;;8.60;;
28802;SDS011;15949;55.656;37.422;2023-07-02T23:20:41;13.73;;;8.70;;
28802;SDS011;15949;55.656;37.422;2023-07-02T23:25:47;14.20;;;8.63;;
28802;SDS011;15949;55.656;37.422;2023-07-02T23:30:53;16.63;;;8.73;;
28802;SDS011;15949;55.656;37.422;2023-07-02T23:35:59;17.92;;;9.75;;
28802;SDS011;15949;55.656;37.422;2023-07-02T23:41:05;17.20;;;8.80;;
28802;SDS011;15949;55.656;37.422;2023-07-02T23:46:11;15.40;;;8.77;;
28802;SDS011;15949;55.656;37.422;2023-07-02T23:51:17;16.60;;;8.73;;
28802;SDS011;15949;55.656;37.422;2023-07-02T23:56:23;15.35;;;8.90;;
